createdAt,value
2022-09-22T00:03:01.683Z,1.70
2022-09-22T00:08:23.299Z,0.73
2022-09-22T00:13:47.902Z,0.75
2022-09-22T00:19:13.440Z,0.50
2022-09-22T00:29:56.735Z,0.57
2022-09-22T00:35:18.393Z,0.57
2022-09-22T00:40:40.158Z,0.73
2022-09-22T00:46:13.555Z,1.33
2022-09-22T00:51:38.379Z,0.75
2022-09-22T00:57:18.136Z,4.90
2022-09-22T01:02:40.242Z,1.08
2022-09-22T01:08:02.573Z,0.73
2022-09-22T01:13:33.144Z,1.90
2022-09-22T01:19:29.502Z,0.85
2022-09-22T01:24:56.866Z,4.53
2022-09-22T01:30:18.520Z,2.10
2022-09-22T01:36:17.727Z,1.00
2022-09-22T01:41:52.041Z,0.40
2022-09-22T01:47:24.524Z,1.17
2022-09-22T01:52:48.352Z,1.00
2022-09-22T01:58:20.432Z,0.50
2022-09-22T02:03:45.119Z,1.50
2022-09-22T02:09:10.776Z,1.53
2022-09-22T02:14:32.621Z,1.73
2022-09-22T02:19:54.430Z,0.73
2022-09-22T02:25:16.201Z,0.98
2022-09-22T02:30:38.093Z,0.60
2022-09-22T02:36:12.550Z,1.45
2022-09-22T02:41:37.054Z,0.68
2022-09-22T02:47:06.278Z,0.82
2022-09-22T02:52:27.935Z,1.23
2022-09-22T02:57:49.615Z,1.05
2022-09-22T03:03:12.161Z,0.57
2022-09-22T03:08:33.938Z,1.10
2022-09-22T03:13:55.602Z,0.95
2022-09-22T03:19:17.240Z,0.68
2022-09-22T03:24:38.977Z,0.50
2022-09-22T03:30:00.658Z,0.45
2022-09-22T03:35:22.391Z,0.60
2022-09-22T03:40:51.115Z,0.47
2022-09-22T03:46:14.437Z,0.88
2022-09-22T03:51:36.149Z,1.80
2022-09-22T03:57:00.789Z,0.40
2022-09-22T04:02:22.582Z,0.52
2022-09-22T04:07:45.182Z,0.30
2022-09-22T04:13:06.836Z,0.50
2022-09-22T04:18:29.708Z,2.15
2022-09-22T04:23:51.436Z,0.82
2022-09-22T04:29:13.048Z,0.70
2022-09-22T04:34:34.707Z,1.20
2022-09-22T04:39:56.364Z,0.80
2022-09-22T04:45:18.718Z,1.17
2022-09-22T04:50:44.492Z,0.75
2022-09-22T04:56:08.957Z,0.60
2022-09-22T05:01:30.703Z,0.75
2022-09-22T05:06:52.445Z,2.05
2022-09-22T05:12:14.105Z,0.40
2022-09-22T05:17:36.421Z,0.68
2022-09-22T05:22:58.126Z,1.42
2022-09-22T05:28:21.414Z,0.50
2022-09-22T05:33:43.141Z,1.08
2022-09-22T05:39:05.028Z,1.13
2022-09-22T05:44:26.850Z,10.75
2022-09-22T05:49:48.567Z,5.18
2022-09-22T05:55:11.563Z,19.13
2022-09-22T06:00:33.276Z,6.28
2022-09-22T06:05:54.955Z,8.77
2022-09-22T06:11:16.612Z,7.63
2022-09-22T06:16:38.293Z,5.38
2022-09-22T06:22:00.171Z,6.95
2022-09-22T06:27:21.816Z,6.32
2022-09-22T06:32:44.028Z,11.90
2022-09-22T06:38:07.468Z,8.15
2022-09-22T06:43:29.111Z,5.60
2022-09-22T06:48:51.625Z,1.02
2022-09-22T06:54:13.519Z,8.95
2022-09-22T06:59:39.194Z,6.80
2022-09-22T07:05:00.811Z,2.42
2022-09-22T07:10:22.454Z,5.75
2022-09-22T07:15:44.934Z,1.58
2022-09-22T07:21:12.409Z,3.90
2022-09-22T07:26:36.900Z,3.00
2022-09-22T07:31:59.589Z,6.23
2022-09-22T07:37:21.308Z,3.28
2022-09-22T07:42:48.081Z,4.50
2022-09-22T07:48:27.931Z,2.10
2022-09-22T07:54:03.309Z,3.92
2022-09-22T07:59:25.829Z,1.73
2022-09-22T08:04:47.481Z,1.75
2022-09-22T08:10:10.988Z,3.08
2022-09-22T08:15:32.637Z,4.03
2022-09-22T08:20:54.346Z,3.10
2022-09-22T08:26:15.993Z,3.47
2022-09-22T08:31:41.627Z,1.95
2022-09-22T08:37:03.382Z,3.08
2022-09-22T08:42:28.604Z,2.63
2022-09-22T08:48:16.190Z,2.53
2022-09-22T08:53:47.805Z,1.48
2022-09-22T08:59:23.198Z,2.85
2022-09-22T09:05:27.698Z,11.35
2022-09-22T09:10:59.314Z,2.28
2022-09-22T09:16:56.543Z,2.47
2022-09-22T09:22:22.967Z,5.90
2022-09-22T09:27:50.364Z,1.63
2022-09-22T09:33:23.861Z,4.10
2022-09-22T09:38:52.238Z,1.15
2022-09-22T09:44:23.741Z,2.15
2022-09-22T09:49:46.444Z,3.78
2022-09-22T09:55:27.200Z,4.70
2022-09-22T10:01:00.643Z,6.65
2022-09-22T10:06:26.621Z,3.53
2022-09-22T10:11:58.351Z,4.15
2022-09-22T10:17:29.154Z,3.67
2022-09-22T10:22:50.831Z,8.05
2022-09-22T10:28:16.350Z,2.58
2022-09-22T10:33:53.947Z,17.70
2022-09-22T10:39:18.812Z,25.15
2022-09-22T10:44:45.208Z,16.13
2022-09-22T10:50:51.135Z,16.25
2022-09-22T10:56:34.173Z,17.25
2022-09-22T11:02:25.805Z,18.70
2022-09-22T11:08:17.587Z,13.38
2022-09-22T11:13:48.996Z,12.68
2022-09-22T11:19:32.326Z,10.13
2022-09-22T11:25:13.342Z,7.70
2022-09-22T11:30:47.402Z,11.45
2022-09-22T11:36:18.233Z,11.65
2022-09-22T11:42:17.981Z,7.50
2022-09-22T11:47:54.523Z,10.07
2022-09-22T11:53:25.049Z,10.05
2022-09-22T11:58:47.795Z,6.88
2022-09-22T12:04:27.095Z,7.75
2022-09-22T12:09:56.419Z,9.85
2022-09-22T12:15:29.337Z,14.32
2022-09-22T12:21:05.555Z,6.82
2022-09-22T12:26:45.194Z,8.63
2022-09-22T12:32:23.848Z,7.00
2022-09-22T12:37:45.732Z,3.90
2022-09-22T12:43:18.075Z,3.38
2022-09-22T12:48:39.869Z,3.78
2022-09-22T12:54:23.119Z,4.22
2022-09-22T12:59:57.329Z,4.85
2022-09-22T13:05:24.806Z,1.88
2022-09-22T13:10:57.983Z,8.15
2022-09-22T13:16:19.617Z,5.18
2022-09-22T13:21:41.974Z,2.08
2022-09-22T13:27:04.898Z,1.35
2022-09-22T13:32:28.598Z,5.18
2022-09-22T13:37:50.463Z,1.60
2022-09-22T13:43:12.453Z,3.63
2022-09-22T13:48:37.630Z,1.50
2022-09-22T13:53:59.387Z,4.40
2022-09-22T13:59:21.805Z,2.15
2022-09-22T14:04:52.494Z,2.38
2022-09-22T14:10:19.642Z,1.52
2022-09-22T14:15:43.937Z,1.83
2022-09-22T14:21:09.688Z,4.07
2022-09-22T14:26:39.158Z,5.20
2022-09-22T14:32:22.452Z,5.40
2022-09-22T14:37:48.915Z,6.85
2022-09-22T14:43:42.469Z,1.15
2022-09-22T14:49:43.659Z,5.95
2022-09-22T14:55:14.700Z,4.18
2022-09-22T15:00:55.329Z,18.45
2022-09-22T15:06:17.263Z,9.98
2022-09-22T15:11:54.852Z,9.38
2022-09-22T15:17:55.839Z,6.90
2022-09-22T15:23:21.347Z,6.45
2022-09-22T15:28:43.660Z,4.47
2022-09-22T15:34:06.676Z,7.00
2022-09-22T15:39:28.341Z,8.40
2022-09-22T15:44:52.677Z,4.07
2022-09-22T15:50:21.324Z,5.03
2022-09-22T15:55:43.109Z,4.05
2022-09-22T16:01:05.855Z,3.22
2022-09-22T16:06:27.966Z,4.15
2022-09-22T16:11:49.784Z,5.55
2022-09-22T16:17:11.474Z,5.50
2022-09-22T16:22:34.097Z,4.88
2022-09-22T16:27:55.708Z,3.65
2022-09-22T16:33:17.632Z,2.72
2022-09-22T16:38:39.670Z,2.22
2022-09-22T16:44:02.675Z,3.15
2022-09-22T16:49:25.718Z,7.13
2022-09-22T16:54:47.446Z,5.97
2022-09-22T17:00:11.766Z,15.82
2022-09-22T17:05:33.622Z,9.90
2022-09-22T17:10:55.970Z,12.52
2022-09-22T17:16:34.891Z,8.95
2022-09-22T17:21:56.995Z,6.85
2022-09-22T17:27:18.873Z,8.20
2022-09-22T17:32:40.618Z,5.43
2022-09-22T17:38:02.583Z,6.93
2022-09-22T17:43:24.432Z,11.55
2022-09-22T17:49:04.973Z,22.38
2022-09-22T17:54:56.448Z,10.13
2022-09-22T18:00:21.405Z,11.10
2022-09-22T18:05:44.003Z,14.70
2022-09-22T18:11:05.665Z,10.38
2022-09-22T18:16:33.291Z,7.20
2022-09-22T18:21:55.717Z,9.98
2022-09-22T18:27:19.722Z,14.23
2022-09-22T18:32:41.589Z,7.82
2022-09-22T18:38:03.389Z,14.05
2022-09-22T18:43:25.133Z,6.60
2022-09-22T18:48:48.763Z,7.72
2022-09-22T18:54:15.302Z,6.50
2022-09-22T18:59:37.155Z,7.00
2022-09-22T19:04:58.799Z,5.80
2022-09-22T19:10:21.953Z,17.65
2022-09-22T19:15:44.155Z,12.23
2022-09-22T19:21:06.043Z,5.82
2022-09-22T19:26:28.980Z,10.23
2022-09-22T19:31:50.732Z,14.63
2022-09-22T19:37:12.501Z,8.68
2022-09-22T19:42:40.104Z,4.43
2022-09-22T19:48:02.547Z,6.53
2022-09-22T19:53:24.279Z,9.23
2022-09-22T19:58:46.203Z,9.63
2022-09-22T20:04:14.490Z,5.53
2022-09-22T20:09:36.538Z,6.53
2022-09-22T20:14:58.176Z,5.65
2022-09-22T20:20:25.355Z,5.43
2022-09-22T20:25:47.479Z,7.47
2022-09-22T20:31:11.999Z,3.75
2022-09-22T20:36:37.032Z,3.30
2022-09-22T20:47:26.137Z,15.02
2022-09-22T20:52:48.136Z,7.07
2022-09-22T20:58:12.821Z,8.20
2022-09-22T21:03:35.510Z,8.43
2022-09-22T21:09:15.634Z,4.53
2022-09-22T21:14:37.304Z,6.03
2022-09-22T21:19:59.020Z,2.92
2022-09-22T21:25:20.849Z,3.38
2022-09-22T21:30:42.576Z,6.15
2022-09-22T21:36:08.723Z,6.78
2022-09-22T21:41:34.126Z,6.85
2022-09-22T21:52:17.581Z,2.22
2022-09-22T21:57:39.207Z,1.85
2022-09-22T22:03:32.813Z,0.80
2022-09-22T22:09:01.068Z,0.82
2022-09-22T22:14:24.770Z,3.47
2022-09-22T22:19:47.624Z,2.00
2022-09-22T22:25:18.540Z,1.55
2022-09-22T22:30:41.091Z,1.85
2022-09-22T22:36:04.681Z,1.10
2022-09-22T22:41:26.403Z,1.42
2022-09-22T22:46:48.269Z,0.70
2022-09-22T22:52:09.906Z,1.23
2022-09-22T22:57:31.555Z,1.42
2022-09-22T23:02:53.236Z,2.13
2022-09-22T23:08:14.871Z,2.30
2022-09-22T23:13:36.523Z,1.13
2022-09-22T23:19:01.468Z,1.10
2022-09-22T23:24:23.124Z,2.50
2022-09-22T23:29:44.766Z,1.02
2022-09-22T23:35:06.906Z,6.15
2022-09-22T23:40:30.432Z,2.25
2022-09-22T23:45:53.175Z,2.13
2022-09-22T23:51:14.906Z,1.33
2022-09-22T23:56:37.188Z,1.55
